Time;durP1;ratioP1;P1;durP2;ratioP2;P2;SDS_P1;SDS_P2;PMS_P1;PMS_P2;Temp;Humidity;BMP_temperature;BMP_pressure;BME280_temperature;BME280_humidity;BME280_pressure;Samples;Min_cycle;Max_cycle;Signal;HPM_P1;HPM_P2
2021/01/19 00:01:08;;;;;;;7.03;3.70;;;7.20;81.80;;;;;;4882897;29;20119;-86
2021/01/19 00:03:33;;;;;;;9.82;3.65;;;7.20;81.80;;;;;;4915900;29;20088;-86
2021/01/19 00:05:59;;;;;;;8.05;3.70;;;7.20;81.70;;;;;;4883190;29;20110;-87
2021/01/19 00:08:25;;;;;;;10.88;4.05;;;7.20;81.60;;;;;;4898400;29;20063;-87
2021/01/19 00:10:50;;;;;;;8.63;3.67;;;7.20;81.60;;;;;;4915648;29;20055;-87
2021/01/19 00:13:22;;;;;;;8.77;3.58;;;7.20;81.50;;;;;;4898260;29;20044;-87
2021/01/19 00:15:48;;;;;;;8.90;3.40;;;7.20;81.50;;;;;;4898655;29;20050;-87
2021/01/19 00:18:15;;;;;;;8.75;3.63;;;7.20;81.40;;;;;;4898551;29;20436;-86
2021/01/19 00:20:41;;;;;;;11.00;3.35;;;7.20;81.30;;;;;;4898056;29;20044;-86
2021/01/19 00:23:07;;;;;;;7.32;3.38;;;7.20;81.40;;;;;;4898688;29;20043;-87
2021/01/19 00:25:35;;;;;;;6.68;3.10;;;7.20;81.30;;;;;;4897996;29;20036;-86
2021/01/19 00:28:01;;;;;;;10.83;3.33;;;7.20;81.30;;;;;;4922689;29;20040;-87
2021/01/19 00:30:27;;;;;;;8.50;3.47;;;7.20;81.20;;;;;;4916906;29;20362;-87
2021/01/19 00:32:52;;;;;;;8.02;3.40;;;7.10;81.00;;;;;;4901612;29;20036;-86
2021/01/19 00:35:18;;;;;;;9.40;3.50;;;7.10;81.00;;;;;;4887454;29;20498;-86
2021/01/19 00:37:44;;;;;;;7.13;2.78;;;7.10;81.00;;;;;;4898394;29;20040;-86
2021/01/19 00:40:10;;;;;;;6.15;2.78;;;7.10;80.90;;;;;;4882769;29;20036;-87
2021/01/19 00:42:35;;;;;;;9.02;2.90;;;7.10;80.80;;;;;;4882342;29;20043;-86
2021/01/19 00:45:01;;;;;;;11.82;3.13;;;7.10;80.70;;;;;;4915231;29;20036;-86
2021/01/19 00:47:27;;;;;;;8.63;3.90;;;7.10;80.60;;;;;;4902460;29;20434;-85
2021/01/19 00:49:52;;;;;;;8.98;3.38;;;7.10;80.50;;;;;;4916951;29;20048;-87
2021/01/19 00:52:18;;;;;;;9.77;3.33;;;7.10;80.40;;;;;;4901365;29;20099;-86
2021/01/19 00:54:44;;;;;;;12.48;3.63;;;7.00;80.40;;;;;;4885781;29;20135;-86
2021/01/19 00:57:10;;;;;;;7.43;3.22;;;7.00;80.20;;;;;;4885888;29;20036;-86
2021/01/19 00:59:36;;;;;;;8.52;3.38;;;7.00;80.20;;;;;;4900989;29;20496;-86
2021/01/19 01:02:02;;;;;;;6.78;3.13;;;7.00;80.30;;;;;;4917126;29;20043;-87
2021/01/19 01:04:28;;;;;;;9.02;3.20;;;7.00;80.30;;;;;;4907105;29;20040;-86
2021/01/19 01:06:54;;;;;;;9.40;2.90;;;7.00;80.20;;;;;;4867133;29;20087;-86
2021/01/19 01:09:20;;;;;;;7.57;3.97;;;7.00;80.20;;;;;;4898070;29;20040;-86
2021/01/19 01:11:46;;;;;;;8.27;2.67;;;7.00;80.20;;;;;;4897872;29;20091;-86
2021/01/19 01:14:13;;;;;;;7.25;2.53;;;7.00;80.20;;;;;;4900882;29;20072;-86
2021/01/19 01:16:40;;;;;;;6.75;2.72;;;7.00;79.90;;;;;;4918242;29;20060;-86
2021/01/19 01:19:07;;;;;;;6.18;2.30;;;7.00;79.80;;;;;;4901793;29;20036;-86
2021/01/19 01:21:39;;;;;;;7.05;2.38;;;7.00;79.90;;;;;;4885647;29;20040;-86
2021/01/19 01:24:06;;;;;;;9.57;3.33;;;7.00;79.90;;;;;;4893692;29;20043;-86
2021/01/19 01:26:32;;;;;;;7.47;2.63;;;7.00;79.90;;;;;;4904478;29;20551;-86
2021/01/19 01:28:58;;;;;;;7.03;2.42;;;7.00;79.80;;;;;;4937469;29;20123;-86
2021/01/19 01:31:24;;;;;;;11.32;3.38;;;7.00;79.80;;;;;;4920095;29;20114;-86
2021/01/19 01:33:49;;;;;;;6.65;2.45;;;7.00;79.60;;;;;;4896481;29;20048;-86
2021/01/19 01:36:15;;;;;;;8.38;2.90;;;7.00;79.40;;;;;;4882664;29;20036;-86
2021/01/19 01:38:41;;;;;;;8.88;2.70;;;6.90;79.20;;;;;;4899030;29;20033;-86
2021/01/19 01:41:18;;;;;;;9.57;3.03;;;6.90;79.30;;;;;;4898085;29;20144;-86
2021/01/19 01:43:44;;;;;;;8.60;2.58;;;6.90;79.30;;;;;;4899144;29;20452;-86
2021/01/19 01:46:14;;;;;;;12.52;3.05;;;6.90;79.10;;;;;;4898170;29;20148;-86
2021/01/19 01:48:41;;;;;;;8.52;2.60;;;6.90;79.10;;;;;;4897938;29;20040;-86
2021/01/19 01:51:11;;;;;;;8.85;2.58;;;6.80;78.90;;;;;;4882765;29;20048;-86
2021/01/19 01:53:37;;;;;;;9.05;2.40;;;6.80;78.90;;;;;;4881972;29;20037;-86
2021/01/19 01:56:05;;;;;;;6.07;2.42;;;6.80;78.90;;;;;;4882305;29;20148;-86
2021/01/19 01:58:31;;;;;;;5.88;1.80;;;6.80;78.90;;;;;;4897876;29;20033;-86
2021/01/19 02:00:57;;;;;;;4.88;2.20;;;6.80;78.90;;;;;;4882495;29;20157;-86
2021/01/19 02:03:22;;;;;;;7.90;2.28;;;6.80;78.80;;;;;;4903619;29;20046;-86
2021/01/19 02:05:48;;;;;;;9.82;2.90;;;6.80;78.60;;;;;;4903807;29;20050;-86
2021/01/19 02:11:26;;;;;;;9.63;2.97;;;6.80;78.80;;;;;;4897714;29;20053;-86
2021/01/19 02:14:07;;;;;;;7.32;2.60;;;6.70;78.80;;;;;;4881746;29;20041;-86
2021/01/19 02:16:39;;;;;;;9.30;2.85;;;6.70;78.80;;;;;;4881844;29;20033;-86
2021/01/19 02:19:26;;;;;;;15.20;2.90;;;6.70;78.90;;;;;;4883037;29;20036;-86
2021/01/19 02:22:29;;;;;;;7.88;2.55;;;6.70;78.70;;;;;;4898519;29;20455;-87
2021/01/19 02:25:25;;;;;;;6.78;2.60;;;6.70;78.80;;;;;;4898244;29;20040;-86
2021/01/19 02:28:15;;;;;;;9.30;3.22;;;6.60;78.80;;;;;;4881426;29;20139;-86
2021/01/19 02:31:09;;;;;;;11.48;3.38;;;6.60;78.90;;;;;;4884782;29;20068;-86
2021/01/19 02:33:42;;;;;;;6.43;2.72;;;6.60;78.90;;;;;;4898061;29;20088;-86
2021/01/19 02:36:19;;;;;;;8.55;3.05;;;6.50;79.00;;;;;;4881767;29;20036;-85
2021/01/19 02:38:59;;;;;;;10.73;3.42;;;6.50;79.00;;;;;;4896870;29;20040;-86
2021/01/19 02:41:26;;;;;;;7.80;3.20;;;6.50;79.10;;;;;;4883642;29;20458;-86
2021/01/19 02:44:06;;;;;;;10.63;3.70;;;6.50;79.20;;;;;;4881707;29;20438;-86
2021/01/19 02:46:33;;;;;;;8.43;3.28;;;6.50;79.20;;;;;;4880981;29;20398;-86
2021/01/19 02:48:58;;;;;;;8.35;3.60;;;6.50;79.20;;;;;;4866358;29;20052;-86
2021/01/19 02:51:24;;;;;;;7.97;3.00;;;6.50;79.30;;;;;;4896191;29;20063;-86
2021/01/19 02:53:52;;;;;;;9.70;3.83;;;6.40;79.30;;;;;;4914976;29;20036;-86
2021/01/19 02:56:50;;;;;;;9.02;4.13;;;6.40;79.30;;;;;;4883005;29;20444;-86
2021/01/19 02:59:42;;;;;;;10.88;3.88;;;6.50;79.40;;;;;;4876123;29;20041;-86
2021/01/19 03:02:10;;;;;;;12.77;4.53;;;6.50;79.50;;;;;;4881168;29;20093;-86
2021/01/19 03:04:37;;;;;;;8.80;3.72;;;6.40;79.50;;;;;;4880998;29;20036;-86
2021/01/19 03:07:05;;;;;;;14.07;4.47;;;6.40;79.60;;;;;;4881550;29;20384;-86
2021/01/19 03:09:35;;;;;;;11.60;4.00;;;6.40;79.60;;;;;;4877628;29;20056;-86
2021/01/19 03:12:01;;;;;;;13.00;4.28;;;6.40;79.80;;;;;;4879386;29;20130;-86
2021/01/19 03:14:27;;;;;;;13.63;4.47;;;6.40;79.80;;;;;;4877361;29;20044;-86
2021/01/19 03:17:03;;;;;;;11.98;4.25;;;6.40;79.90;;;;;;4862103;29;20395;-86
2021/01/19 03:19:30;;;;;;;13.10;4.60;;;6.30;79.80;;;;;;4877876;29;20072;-86
2021/01/19 03:21:55;;;;;;;14.30;4.72;;;6.40;80.00;;;;;;4862093;29;20042;-86
2021/01/19 03:24:21;;;;;;;11.45;4.38;;;6.30;80.00;;;;;;4862406;29;20040;-86
2021/01/19 03:26:46;;;;;;;16.02;5.00;;;6.30;80.00;;;;;;4861924;29;20072;-86
2021/01/19 03:29:12;;;;;;;13.77;4.35;;;6.40;80.10;;;;;;4846739;29;20051;-86
2021/01/19 03:31:37;;;;;;;17.63;5.00;;;6.30;80.20;;;;;;4861826;29;20449;-87
2021/01/19 03:34:03;;;;;;;13.05;4.93;;;6.30;80.30;;;;;;4861882;29;20045;-86
2021/01/19 03:36:29;;;;;;;13.07;4.53;;;6.30;80.40;;;;;;4859854;29;20376;-87
2021/01/19 03:38:54;;;;;;;12.23;4.32;;;6.30;80.50;;;;;;4884399;29;20048;-86
2021/01/19 03:41:20;;;;;;;10.60;4.00;;;6.30;80.60;;;;;;4865148;29;20068;-86
2021/01/19 03:43:45;;;;;;;10.73;4.35;;;6.30;80.50;;;;;;4864750;29;20048;-86
2021/01/19 03:46:11;;;;;;;13.18;5.07;;;6.30;80.60;;;;;;4864573;29;20573;-86
2021/01/19 03:48:36;;;;;;;14.02;4.35;;;6.30;80.60;;;;;;4870208;29;20187;-86
2021/01/19 03:51:03;;;;;;;9.63;3.83;;;6.30;80.70;;;;;;4898630;29;20052;-86
2021/01/19 03:53:28;;;;;;;10.75;4.07;;;6.30;80.80;;;;;;4883591;29;20044;-85
2021/01/19 03:55:54;;;;;;;11.05;4.25;;;6.30;80.90;;;;;;4885864;29;20037;-86
2021/01/19 03:58:19;;;;;;;11.30;5.07;;;6.30;80.80;;;;;;4878795;29;20048;-87
2021/01/19 04:00:45;;;;;;;13.25;4.28;;;6.30;80.90;;;;;;4879201;29;20092;-86
2021/01/19 04:03:10;;;;;;;10.75;3.70;;;6.30;81.10;;;;;;4864638;29;20498;-86
2021/01/19 04:05:36;;;;;;;11.82;4.47;;;6.30;81.00;;;;;;4896970;29;20112;-87
2021/01/19 04:08:02;;;;;;;11.32;4.13;;;6.30;81.10;;;;;;4868330;29;20024;-86
2021/01/19 04:10:28;;;;;;;12.13;4.22;;;6.30;81.10;;;;;;4897653;29;20071;-86
2021/01/19 04:12:54;;;;;;;10.10;4.05;;;6.30;81.20;;;;;;4866748;29;20115;-86
2021/01/19 04:15:19;;;;;;;9.77;4.05;;;6.40;81.30;;;;;;4898956;29;20040;-87
2021/01/19 04:17:45;;;;;;;12.80;4.38;;;6.40;81.40;;;;;;4898646;29;20039;-86
2021/01/19 04:20:11;;;;;;;13.43;4.30;;;6.30;81.40;;;;;;4898883;29;20032;-86
2021/01/19 04:22:37;;;;;;;11.73;4.07;;;6.40;81.60;;;;;;4898816;29;20071;-87
2021/01/19 04:25:05;;;;;;;14.00;4.40;;;6.30;81.70;;;;;;4915254;29;20063;-87
2021/01/19 04:27:30;;;;;;;11.75;3.90;;;6.30;81.80;;;;;;4895269;29;20104;-87
2021/01/19 04:29:56;;;;;;;13.70;4.90;;;6.30;82.00;;;;;;4889554;29;20036;-87
2021/01/19 04:32:21;;;;;;;10.82;3.80;;;6.30;82.10;;;;;;4882816;29;20048;-86
2021/01/19 04:34:47;;;;;;;14.02;4.43;;;6.30;82.30;;;;;;4882628;29;20443;-87
2021/01/19 04:37:13;;;;;;;13.57;4.50;;;6.30;82.50;;;;;;4895070;29;20071;-87
2021/01/19 04:39:38;;;;;;;11.45;3.95;;;6.30;82.40;;;;;;4874185;29;20072;-87
2021/01/19 04:42:07;;;;;;;11.63;4.32;;;6.30;82.40;;;;;;4872979;29;20080;-86
2021/01/19 04:44:34;;;;;;;8.95;3.42;;;6.30;82.50;;;;;;4880630;29;20096;-87
2021/01/19 04:47:01;;;;;;;10.23;3.45;;;6.30;82.50;;;;;;4873176;29;20048;-87
2021/01/19 04:49:28;;;;;;;12.02;3.97;;;6.30;82.70;;;;;;4886207;29;20263;-87
2021/01/19 04:51:57;;;;;;;9.15;3.78;;;6.40;82.70;;;;;;4887521;29;20051;-87
2021/01/19 04:54:32;;;;;;;12.85;3.95;;;6.40;82.90;;;;;;4890014;29;20110;-87
2021/01/19 04:57:01;;;;;;;9.25;3.80;;;6.30;82.90;;;;;;4898610;29;20033;-87
2021/01/19 04:59:37;;;;;;;8.13;3.50;;;6.40;82.90;;;;;;4915335;29;20031;-86
2021/01/19 05:02:14;;;;;;;8.57;3.58;;;6.40;82.90;;;;;;4915012;29;20439;-88
2021/01/19 05:04:48;;;;;;;9.75;4.22;;;6.40;83.10;;;;;;4915221;29;20036;-87
2021/01/19 05:07:33;;;;;;;9.98;4.43;;;6.40;83.20;;;;;;4882919;29;20072;-87
2021/01/19 05:10:02;;;;;;;6.78;3.13;;;6.40;83.50;;;;;;4869714;29;20611;-87
2021/01/19 05:12:39;;;;;;;9.95;3.70;;;6.40;83.50;;;;;;4873644;29;20396;-87
2021/01/19 05:15:12;;;;;;;7.90;3.90;;;6.40;83.60;;;;;;4878755;29;20151;-87
2021/01/19 05:17:39;;;;;;;7.18;3.38;;;6.40;83.90;;;;;;4877543;29;20028;-86
2021/01/19 05:20:07;;;;;;;9.75;3.25;;;6.40;83.90;;;;;;4878885;29;20079;-87
2021/01/19 05:22:33;;;;;;;8.35;3.40;;;6.40;83.70;;;;;;4896426;29;20128;-88
2021/01/19 05:24:59;;;;;;;9.95;3.22;;;6.40;83.90;;;;;;4891104;29;20131;-89
2021/01/19 05:27:25;;;;;;;9.30;3.65;;;6.40;84.00;;;;;;4874191;29;20092;-88
2021/01/19 05:29:58;;;;;;;8.13;3.90;;;6.40;83.90;;;;;;4857740;29;20483;-90
2021/01/19 05:32:43;;;;;;;9.20;3.85;;;6.40;84.20;;;;;;4879421;29;20035;-90
2021/01/19 05:35:17;;;;;;;9.13;3.60;;;6.40;84.30;;;;;;4881879;29;20055;-89
2021/01/19 05:37:58;;;;;;;10.32;3.75;;;6.40;84.50;;;;;;4888016;29;20424;-90
2021/01/19 05:40:26;;;;;;;7.15;3.38;;;6.40;84.50;;;;;;4871193;29;20457;-90
2021/01/19 05:42:53;;;;;;;11.88;3.53;;;6.40;84.60;;;;;;4864384;29;20480;-91
2021/01/19 05:45:19;;;;;;;6.20;3.17;;;6.40;84.60;;;;;;4878942;29;20041;-90
2021/01/19 05:47:45;;;;;;;9.85;3.38;;;6.40;84.70;;;;;;4862391;29;20057;-90
2021/01/19 05:50:12;;;;;;;9.52;3.50;;;6.50;84.80;;;;;;4871763;29;20048;-88
2021/01/19 05:52:38;;;;;;;8.50;3.28;;;6.50;84.90;;;;;;4881197;29;20084;-88
2021/01/19 05:55:05;;;;;;;8.02;2.90;;;6.50;84.90;;;;;;4862957;29;20033;-88
2021/01/19 05:57:30;;;;;;;8.98;3.15;;;6.50;85.00;;;;;;4876555;29;20030;-88
2021/01/19 06:00:04;;;;;;;7.32;2.78;;;6.50;84.90;;;;;;4880408;29;20111;-88
2021/01/19 06:02:40;;;;;;;6.00;2.60;;;6.50;84.90;;;;;;4897442;29;20051;-88
2021/01/19 06:05:11;;;;;;;7.93;3.17;;;6.50;85.00;;;;;;4901838;29;20398;-86
2021/01/19 06:07:44;;;;;;;6.18;2.85;;;6.60;85.20;;;;;;4886719;29;20036;-88
2021/01/19 06:10:11;;;;;;;7.80;2.78;;;6.60;85.20;;;;;;4901799;29;20165;-89
2021/01/19 06:12:37;;;;;;;5.45;2.90;;;6.50;85.40;;;;;;4918897;29;20088;-89
2021/01/19 06:15:04;;;;;;;6.95;2.58;;;6.50;85.50;;;;;;4902170;29;20036;-89
2021/01/19 06:17:30;;;;;;;5.30;2.50;;;6.60;85.30;;;;;;4887103;29;20043;-88
2021/01/19 06:20:00;;;;;;;5.65;2.70;;;6.60;85.30;;;;;;4886484;29;20036;-88
2021/01/19 06:22:28;;;;;;;5.20;2.60;;;6.60;85.40;;;;;;4886456;29;20080;-90
2021/01/19 06:24:55;;;;;;;6.57;3.22;;;6.60;85.30;;;;;;4870804;29;20550;-89
2021/01/19 06:27:24;;;;;;;11.57;4.07;;;6.60;85.40;;;;;;4884187;29;20047;-88
2021/01/19 06:29:58;;;;;;;7.60;4.00;;;6.60;85.40;;;;;;4899417;29;20040;-88
2021/01/19 06:32:25;;;;;;;4.32;2.63;;;6.60;85.50;;;;;;4916445;29;20127;-89
2021/01/19 06:34:51;;;;;;;7.65;2.47;;;6.60;85.60;;;;;;4887341;29;20036;-89
2021/01/19 06:37:27;;;;;;;5.85;2.42;;;6.60;85.60;;;;;;4901374;29;20501;-89
2021/01/19 06:40:00;;;;;;;4.63;2.38;;;6.70;85.70;;;;;;4901473;29;20044;-89
2021/01/19 06:42:28;;;;;;;4.82;2.03;;;6.70;85.70;;;;;;4893168;29;20032;-89
2021/01/19 06:44:59;;;;;;;4.50;2.10;;;6.70;85.80;;;;;;4882118;29;20131;-89
2021/01/19 06:47:26;;;;;;;5.68;2.40;;;6.70;85.80;;;;;;4882616;29;20041;-88
2021/01/19 06:49:53;;;;;;;6.85;2.20;;;6.70;85.80;;;;;;4867173;29;20041;-89
2021/01/19 06:52:21;;;;;;;4.45;1.90;;;6.70;85.70;;;;;;4882991;29;20389;-89
2021/01/19 06:54:57;;;;;;;5.17;2.20;;;6.70;85.80;;;;;;4882547;29;20093;-89
2021/01/19 06:57:33;;;;;;;4.65;2.28;;;6.70;85.90;;;;;;4882447;29;20576;-88
2021/01/19 07:00:05;;;;;;;5.55;2.10;;;6.70;86.00;;;;;;4882135;29;20040;-89
2021/01/19 07:02:38;;;;;;;7.65;2.40;;;6.70;86.10;;;;;;4893668;29;20043;-91
2021/01/19 07:05:28;;;;;;;5.20;2.17;;;6.70;86.20;;;;;;4894591;29;20044;-90
2021/01/19 07:07:53;;;;;;;5.07;1.90;;;6.70;86.10;;;;;;4882055;29;20093;-91
2021/01/19 07:10:41;;;;;;;3.35;2.17;;;6.70;86.10;;;;;;4881063;29;20463;-90
2021/01/19 07:13:07;;;;;;;5.13;2.20;;;6.70;86.20;;;;;;4898704;29;20041;-91
2021/01/19 07:16:00;;;;;;;2.72;1.75;;;6.80;86.00;;;;;;4851661;29;20037;-91
2021/01/19 07:18:59;;;;;;;4.35;1.92;;;6.80;86.00;;;;;;4882396;29;20039;-90
2021/01/19 07:21:35;;;;;;;;;;;6.80;86.30;;;;;;4882788;29;20043;-90
2021/01/19 07:24:17;;;;;;;4.10;2.00;;;6.70;86.20;;;;;;4880511;29;19911;-89
2021/01/19 07:26:44;;;;;;;5.88;2.60;;;6.70;86.30;;;;;;4865903;29;20092;-88
2021/01/19 07:29:10;;;;;;;6.43;2.00;;;6.80;86.70;;;;;;4866155;29;20040;-89
2021/01/19 07:31:36;;;;;;;4.97;2.40;;;6.70;86.60;;;;;;4882362;29;20546;-89
2021/01/19 07:34:05;;;;;;;4.22;2.30;;;6.70;86.50;;;;;;4866228;29;20072;-89
2021/01/19 07:36:31;;;;;;;4.38;1.88;;;6.70;86.50;;;;;;4866367;29;20051;-88
2021/01/19 07:38:57;;;;;;;4.40;1.88;;;6.80;86.60;;;;;;4866382;29;20036;-88
2021/01/19 07:41:30;;;;;;;5.30;2.05;;;6.80;86.60;;;;;;4881387;29;20083;-89
2021/01/19 07:43:56;;;;;;;4.38;2.25;;;6.80;86.70;;;;;;4881659;29;20502;-88
2021/01/19 07:46:24;;;;;;;5.50;2.00;;;6.80;86.70;;;;;;4881425;29;20037;-89
2021/01/19 07:49:03;;;;;;;6.72;2.15;;;6.80;86.70;;;;;;4881589;29;20045;-89
2021/01/19 07:51:45;;;;;;;4.13;2.08;;;6.80;86.70;;;;;;4881404;29;20044;-89
2021/01/19 07:54:12;;;;;;;5.47;1.80;;;6.90;86.70;;;;;;4880909;29;20037;-89
2021/01/19 07:56:39;;;;;;;3.15;1.67;;;6.80;86.90;;;;;;4898295;29;20024;-89
2021/01/19 07:59:15;;;;;;;4.18;1.90;;;6.80;86.70;;;;;;4881875;29;20410;-89
2021/01/19 08:01:41;;;;;;;5.00;2.10;;;6.90;87.00;;;;;;4900218;29;20032;-89
2021/01/19 08:04:11;;;;;;;5.13;1.83;;;6.80;87.00;;;;;;4895359;29;20076;-90
2021/01/19 08:06:38;;;;;;;5.03;2.30;;;6.80;87.00;;;;;;4872893;29;20056;-89
2021/01/19 08:09:14;;;;;;;8.50;2.72;;;6.80;87.00;;;;;;4875019;23;20044;-86
2021/01/19 08:11:41;;;;;;;7.18;2.33;;;6.90;87.20;;;;;;4932622;29;20071;-86
2021/01/19 08:14:07;;;;;;;5.00;1.92;;;6.90;87.20;;;;;;4912086;29;20043;-86
2021/01/19 08:16:36;;;;;;;4.38;1.90;;;6.90;87.20;;;;;;4904415;29;20036;-87
2021/01/19 08:19:10;;;;;;;4.97;2.25;;;6.90;87.20;;;;;;4916149;29;20119;-86
2021/01/19 08:21:50;;;;;;;5.05;2.13;;;6.90;87.30;;;;;;4915620;29;20035;-87
2021/01/19 08:24:19;;;;;;;3.53;2.00;;;6.90;87.30;;;;;;4917941;29;20040;-88
2021/01/19 08:26:44;;;;;;;6.55;2.10;;;6.90;87.30;;;;;;4903116;29;20046;-89
2021/01/19 08:29:11;;;;;;;4.15;2.15;;;6.90;87.30;;;;;;4903408;29;20134;-88
2021/01/19 08:31:36;;;;;;;3.60;1.80;;;6.90;87.30;;;;;;4935588;29;20067;-89
2021/01/19 08:34:04;;;;;;;5.55;2.08;;;7.00;87.30;;;;;;4916863;29;20443;-87
2021/01/19 08:36:30;;;;;;;4.43;2.33;;;7.00;87.20;;;;;;4923334;29;20040;-88
2021/01/19 08:38:58;;;;;;;3.83;1.90;;;7.00;87.30;;;;;;4883885;29;20541;-87
2021/01/19 08:41:24;;;;;;;7.22;2.20;;;7.00;87.30;;;;;;4890871;29;20046;-86
2021/01/19 08:43:53;;;;;;;5.57;2.00;;;7.00;87.50;;;;;;4885733;29;20079;-85
2021/01/19 08:46:19;;;;;;;3.08;1.90;;;7.00;87.40;;;;;;4898745;29;20075;-85
2021/01/19 08:48:45;;;;;;;4.53;1.85;;;7.00;87.30;;;;;;4917924;29;20066;-86
2021/01/19 08:51:25;;;;;;;4.68;2.00;;;7.10;87.50;;;;;;4917282;29;20051;-85
2021/01/19 08:53:51;;;;;;;3.42;1.83;;;7.10;87.50;;;;;;4917641;29;20051;-85
2021/01/19 08:56:24;;;;;;;5.07;1.83;;;7.10;87.30;;;;;;4901666;29;20039;-85
2021/01/19 08:58:51;;;;;;;5.05;2.00;;;7.10;87.40;;;;;;4902787;29;20039;-88
2021/01/19 09:01:17;;;;;;;3.15;1.83;;;7.10;87.50;;;;;;4886158;29;20044;-88
2021/01/19 09:03:53;;;;;;;4.57;1.58;;;7.10;88.00;;;;;;4885510;29;20501;-87
2021/01/19 09:06:21;;;;;;;3.42;1.83;;;7.10;87.40;;;;;;4908965;29;20490;-88
2021/01/19 09:08:58;;;;;;;3.70;1.75;;;7.10;88.00;;;;;;4903635;29;20072;-89
2021/01/19 09:11:29;;;;;;;3.13;1.40;;;7.10;87.40;;;;;;4898880;29;20048;-90
2021/01/19 09:14:07;;;;;;;3.72;1.75;;;7.20;87.30;;;;;;4915730;29;20131;-89
2021/01/19 09:16:33;;;;;;;3.15;1.58;;;7.20;87.30;;;;;;4898290;29;20099;-89
2021/01/19 09:19:01;;;;;;;3.83;1.50;;;7.20;87.30;;;;;;4883868;29;20447;-88
2021/01/19 09:21:28;;;;;;;4.20;1.52;;;7.20;87.40;;;;;;4897765;29;20048;-89
2021/01/19 09:23:54;;;;;;;3.03;1.77;;;7.20;87.30;;;;;;4899359;29;20135;-89
2021/01/19 09:26:20;;;;;;;2.83;1.50;;;7.20;87.60;;;;;;4898658;29;20036;-89
2021/01/19 09:28:46;;;;;;;5.10;1.70;;;7.30;87.50;;;;;;4898981;29;20044;-89
2021/01/19 09:31:23;;;;;;;5.47;1.88;;;7.30;87.60;;;;;;4896988;29;20040;-90
2021/01/19 09:33:54;;;;;;;2.78;1.70;;;7.30;87.80;;;;;;4887084;29;20112;-89
2021/01/19 09:36:21;;;;;;;2.35;1.40;;;7.30;87.80;;;;;;4899679;29;20032;-90
2021/01/19 09:38:50;;;;;;;3.40;1.60;;;7.30;88.40;;;;;;4875690;29;20049;-88
2021/01/19 09:41:19;;;;;;;2.70;1.50;;;7.30;87.80;;;;;;4902286;29;20040;-89
2021/01/19 09:43:53;;;;;;;3.72;1.60;;;7.30;88.00;;;;;;4918290;29;20486;-89
2021/01/19 09:46:23;;;;;;;2.45;1.40;;;7.30;88.00;;;;;;4916278;29;20055;-88
2021/01/19 09:48:51;;;;;;;2.42;1.55;;;7.30;88.00;;;;;;4908186;29;20047;-89
2021/01/19 09:51:24;;;;;;;2.67;1.40;;;7.30;88.00;;;;;;4886314;29;20134;-88
2021/01/19 09:54:00;;;;;;;2.90;1.55;;;7.30;88.20;;;;;;4902308;29;20036;-88
2021/01/19 09:56:27;;;;;;;1.73;1.33;;;7.40;88.20;;;;;;4887043;29;20062;-87
2021/01/19 09:59:04;;;;;;;2.60;1.50;;;7.40;88.20;;;;;;4902763;29;20032;-87
2021/01/19 10:01:30;;;;;;;2.83;1.60;;;7.40;88.80;;;;;;4884257;29;20530;-89
2021/01/19 10:03:56;;;;;;;1.85;1.40;;;7.40;88.10;;;;;;4898727;29;20044;-88
2021/01/19 10:06:24;;;;;;;2.53;1.50;;;7.40;88.00;;;;;;4901893;29;20040;-90
2021/01/19 10:08:52;;;;;;;2.95;1.75;;;7.50;88.20;;;;;;4902192;29;20067;-87
2021/01/19 10:11:34;;;;;;;4.93;1.90;;;7.50;88.20;;;;;;4900100;29;20052;-88
2021/01/19 10:14:18;;;;;;;2.65;1.50;;;7.50;88.30;;;;;;4903839;29;20044;-88
2021/01/19 10:16:50;;;;;;;3.35;1.60;;;7.50;88.90;;;;;;4883248;29;20037;-86
2021/01/19 10:19:20;;;;;;;3.85;1.70;;;7.50;88.10;;;;;;4883520;29;20112;-87
2021/01/19 10:21:49;;;;;;;3.03;1.98;;;7.50;88.10;;;;;;4898322;29;20487;-86
2021/01/19 10:24:16;;;;;;;6.13;1.90;;;7.60;88.20;;;;;;4870708;29;20053;-87
2021/01/19 10:27:02;;;;;;;5.15;2.10;;;7.60;88.20;;;;;;4897515;29;20040;-87
2021/01/19 10:29:49;;;;;;;3.25;1.80;;;7.60;88.40;;;;;;4883518;29;20127;-87
2021/01/19 10:32:16;;;;;;;2.88;2.00;;;7.60;88.30;;;;;;4883177;29;20104;-88
2021/01/19 10:34:46;;;;;;;4.25;2.10;;;7.60;88.30;;;;;;4876314;29;20040;-85
2021/01/19 10:37:12;;;;;;;4.35;2.10;;;7.70;88.40;;;;;;4889687;29;20180;-87
2021/01/19 10:39:48;;;;;;;3.63;1.80;;;7.70;88.60;;;;;;4901972;29;20040;-87
2021/01/19 10:42:24;;;;;;;5.85;2.50;;;7.70;88.50;;;;;;4902354;29;20043;-87
2021/01/19 10:44:55;;;;;;;5.10;2.53;;;7.70;88.40;;;;;;4909100;29;20033;-86
2021/01/19 10:47:20;;;;;;;3.83;1.88;;;7.70;88.60;;;;;;4877816;29;20063;-88
2021/01/19 10:49:46;;;;;;;3.55;2.13;;;7.70;88.70;;;;;;4886881;29;20410;-89
2021/01/19 10:52:12;;;;;;;2.55;1.90;;;7.80;88.80;;;;;;4885778;29;20047;-88
2021/01/19 10:54:38;;;;;;;4.03;2.00;;;7.80;88.70;;;;;;4869187;29;20053;-89
2021/01/19 10:57:05;;;;;;;4.65;2.78;;;7.80;88.60;;;;;;4868400;29;20037;-88
2021/01/19 10:59:32;;;;;;;5.82;2.72;;;7.90;88.50;;;;;;4888192;29;20044;-89
2021/01/19 11:01:58;;;;;;;3.78;2.38;;;7.90;88.50;;;;;;4884302;29;20068;-89
2021/01/19 11:04:23;;;;;;;3.50;2.20;;;7.90;88.60;;;;;;4886366;29;20048;-89
2021/01/19 11:06:49;;;;;;;3.63;2.40;;;7.90;88.60;;;;;;4885344;29;20044;-89
2021/01/19 11:09:15;;;;;;;5.75;2.53;;;7.90;88.50;;;;;;4888593;29;20077;-89
2021/01/19 11:11:41;;;;;;;4.15;2.22;;;7.90;88.60;;;;;;4904945;29;20043;-88
2021/01/19 11:14:08;;;;;;;3.70;2.63;;;8.00;88.60;;;;;;4932618;29;20040;-88
2021/01/19 11:16:37;;;;;;;4.47;3.10;;;8.00;88.90;;;;;;4921000;29;20083;-89
2021/01/19 11:19:04;;;;;;;4.22;3.03;;;8.00;89.00;;;;;;4920902;29;20156;-88
2021/01/19 11:21:31;;;;;;;2.95;2.20;;;8.00;88.90;;;;;;4909526;29;20047;-89
2021/01/19 11:23:58;;;;;;;4.22;3.17;;;8.00;88.90;;;;;;4902049;29;20043;-88
2021/01/19 11:26:24;;;;;;;4.47;2.90;;;8.10;89.00;;;;;;4918312;29;20031;-89
2021/01/19 11:28:49;;;;;;;3.97;2.95;;;8.10;89.10;;;;;;4893202;29;20039;-90
2021/01/19 11:31:23;;;;;;;4.63;2.83;;;8.10;89.20;;;;;;4904821;29;20047;-89
2021/01/19 11:33:49;;;;;;;5.25;3.10;;;8.10;89.20;;;;;;4888228;29;20096;-89
2021/01/19 11:36:23;;;;;;;4.75;3.13;;;8.10;89.10;;;;;;4890533;29;20040;-89
2021/01/19 11:38:50;;;;;;;5.78;2.67;;;8.20;89.30;;;;;;4904992;29;20040;-89
2021/01/19 11:41:18;;;;;;;3.88;2.67;;;8.20;89.10;;;;;;4901132;29;20119;-89
2021/01/19 11:43:44;;;;;;;3.85;2.80;;;8.20;89.10;;;;;;4917032;29;20048;-89
2021/01/19 11:46:10;;;;;;;5.65;3.42;;;8.20;88.90;;;;;;4901552;29;20044;-89
2021/01/19 11:48:36;;;;;;;5.50;3.25;;;8.20;88.90;;;;;;4901318;29;20044;-87
2021/01/19 11:51:02;;;;;;;3.33;2.60;;;8.30;89.00;;;;;;4908993;29;20471;-90
2021/01/19 11:53:27;;;;;;;5.32;3.28;;;8.30;88.80;;;;;;4885547;29;20051;-88
2021/01/19 11:55:53;;;;;;;5.65;3.38;;;8.30;88.80;;;;;;4885664;29;20064;-88
2021/01/19 11:58:21;;;;;;;4.72;3.10;;;8.40;89.00;;;;;;4885120;29;20478;-89
2021/01/19 12:00:47;;;;;;;6.00;3.67;;;8.40;89.00;;;;;;4885687;29;20406;-90
2021/01/19 12:03:13;;;;;;;4.55;3.30;;;8.30;89.10;;;;;;4892976;29;20279;-90
2021/01/19 12:05:40;;;;;;;5.93;3.42;;;8.40;88.90;;;;;;4920303;29;20044;-91
2021/01/19 12:08:05;;;;;;;5.07;3.05;;;8.40;88.90;;;;;;4936098;29;20130;-90
2021/01/19 12:10:31;;;;;;;3.22;2.92;;;8.40;88.80;;;;;;4885866;29;20072;-90
2021/01/19 12:12:57;;;;;;;6.55;3.20;;;8.50;88.90;;;;;;4885536;29;20040;-90
2021/01/19 12:15:22;;;;;;;4.05;2.97;;;8.50;88.80;;;;;;4885477;29;20462;-89
2021/01/19 12:17:51;;;;;;;4.75;3.10;;;8.50;88.70;;;;;;4885454;29;20040;-91
2021/01/19 12:20:17;;;;;;;;;;;8.50;88.60;;;;;;4901576;29;20032;-90
2021/01/19 12:22:42;;;;;;;3.42;2.60;;;8.50;88.70;;;;;;4900681;29;19911;-91
2021/01/19 12:25:09;;;;;;;5.15;3.38;;;8.50;88.70;;;;;;4901582;29;20040;-90
2021/01/19 12:27:34;;;;;;;4.13;2.90;;;8.60;88.80;;;;;;4885193;29;20044;-90
2021/01/19 12:30:00;;;;;;;4.63;2.88;;;8.60;89.40;;;;;;4892941;29;20119;-88
2021/01/19 12:32:26;;;;;;;5.63;2.75;;;8.60;88.70;;;;;;4885331;29;20042;-87
2021/01/19 12:34:51;;;;;;;3.45;2.28;;;8.60;88.60;;;;;;4916995;29;20071;-87
2021/01/19 12:37:17;;;;;;;5.70;3.42;;;8.70;88.60;;;;;;4884788;29;20110;-87
2021/01/19 12:39:43;;;;;;;4.28;2.90;;;8.70;88.50;;;;;;4884856;29;20549;-87
2021/01/19 12:42:12;;;;;;;3.58;2.70;;;8.70;88.60;;;;;;4900497;29;20042;-88
2021/01/19 12:44:40;;;;;;;5.10;2.90;;;8.80;88.60;;;;;;4915507;29;20043;-88
2021/01/19 12:47:07;;;;;;;3.97;2.70;;;8.80;88.80;;;;;;4870220;29;20486;-88
2021/01/19 12:49:32;;;;;;;4.43;3.05;;;8.80;88.70;;;;;;4884153;29;20048;-86
2021/01/19 12:51:58;;;;;;;3.40;2.83;;;8.80;88.70;;;;;;4899857;29;20482;-88
2021/01/19 12:54:23;;;;;;;3.70;2.90;;;8.90;88.80;;;;;;4884617;29;20048;-88
2021/01/19 12:56:49;;;;;;;3.83;2.92;;;8.90;88.80;;;;;;4883865;29;20036;-87
2021/01/19 12:59:15;;;;;;;4.63;3.20;;;8.90;88.70;;;;;;4901100;29;20124;-88
2021/01/19 13:01:41;;;;;;;4.43;2.85;;;8.90;88.90;;;;;;4918610;29;20047;-88
2021/01/19 13:04:07;;;;;;;4.20;3.03;;;9.00;88.90;;;;;;4918369;29;20036;-88
2021/01/19 13:06:32;;;;;;;5.43;3.20;;;9.00;89.00;;;;;;4891660;29;20077;-88
2021/01/19 13:08:58;;;;;;;4.07;2.80;;;9.00;89.50;;;;;;4886383;29;20449;-88